createdAt,value
2019-03-01T00:00:48.799Z,10.90
2019-03-01T00:03:17.157Z,10.95
2019-03-01T00:05:54.411Z,11.22
2019-03-01T00:08:26.803Z,11.05
2019-03-01T00:11:10.363Z,11.30
2019-03-01T00:13:47.808Z,10.43
2019-03-01T00:16:53.758Z,10.93
2019-03-01T00:19:36.249Z,11.22
2019-03-01T00:22:17.122Z,10.70
2019-03-01T00:24:55.784Z,11.73
2019-03-01T00:27:31.851Z,11.50
2019-03-01T00:30:04.570Z,12.20
2019-03-01T00:32:40.424Z,11.40
2019-03-01T00:35:26.389Z,11.48
2019-03-01T00:38:12.365Z,12.80
2019-03-01T00:40:54.896Z,12.70
2019-03-01T00:43:31.038Z,12.50
2019-03-01T00:45:59.972Z,12.63
2019-03-01T00:48:29.984Z,13.10
2019-03-01T00:50:58.560Z,12.33
2019-03-01T00:53:27.409Z,13.35
2019-03-01T00:55:55.862Z,11.70
2019-03-01T00:58:24.516Z,12.93
2019-03-01T01:00:52.853Z,12.90
2019-03-01T01:03:21.033Z,12.50
2019-03-01T01:05:49.571Z,12.60
2019-03-01T01:08:17.756Z,12.80
2019-03-01T01:10:46.225Z,12.70
2019-03-01T01:13:14.991Z,13.65
2019-03-01T01:15:43.854Z,13.53
2019-03-01T01:18:12.592Z,13.30
2019-03-01T01:20:40.786Z,14.43
2019-03-01T01:23:09.247Z,14.70
2019-03-01T01:25:37.578Z,14.03
2019-03-01T01:28:06.023Z,14.00
2019-03-01T01:30:35.028Z,14.60
2019-03-01T01:33:03.649Z,14.53
2019-03-01T01:35:32.382Z,14.05
2019-03-01T01:38:00.972Z,14.65
2019-03-01T01:40:29.335Z,13.70
2019-03-01T01:42:57.806Z,14.60
2019-03-01T01:45:25.933Z,14.60
2019-03-01T01:47:54.615Z,15.05
2019-03-01T01:50:23.599Z,14.65
2019-03-01T01:52:52.157Z,14.38
2019-03-01T01:55:20.369Z,13.90
2019-03-01T01:57:49.437Z,13.45
2019-03-01T02:00:17.527Z,13.90
2019-03-01T02:02:45.654Z,14.28
2019-03-01T02:05:13.712Z,14.18
2019-03-01T02:07:42.123Z,14.80
2019-03-01T02:10:10.812Z,15.58
2019-03-01T02:12:38.830Z,15.18
2019-03-01T02:15:08.551Z,15.68
2019-03-01T02:17:37.512Z,16.20
2019-03-01T02:20:05.996Z,16.20
2019-03-01T02:22:34.272Z,16.40
2019-03-01T02:25:02.684Z,16.40
2019-03-01T02:27:30.873Z,16.50
2019-03-01T02:29:59.915Z,16.32
2019-03-01T02:32:32.702Z,17.02
2019-03-01T02:35:01.166Z,17.82
2019-03-01T02:37:29.599Z,17.57
2019-03-01T02:39:58.301Z,17.62
2019-03-01T02:42:27.225Z,17.00
2019-03-01T02:44:55.592Z,18.20
2019-03-01T02:47:23.747Z,17.80
2019-03-01T02:49:52.013Z,17.93
2019-03-01T02:52:20.532Z,18.27
2019-03-01T02:54:50.407Z,18.37
2019-03-01T02:57:18.597Z,17.25
2019-03-01T02:59:46.991Z,17.00
2019-03-01T03:02:15.897Z,17.45
2019-03-01T03:04:45.396Z,17.00
2019-03-01T03:07:25.725Z,15.90
2019-03-01T03:09:53.732Z,16.07
2019-03-01T03:12:22.221Z,15.90
2019-03-01T03:14:50.379Z,15.80
2019-03-01T03:17:18.612Z,15.40
2019-03-01T03:19:46.789Z,15.10
2019-03-01T03:22:15.279Z,15.50
2019-03-01T03:24:43.796Z,15.20
2019-03-01T03:27:12.018Z,15.18
2019-03-01T03:29:40.557Z,15.90
2019-03-01T03:32:08.743Z,15.75
2019-03-01T03:34:36.984Z,15.80
2019-03-01T03:37:05.313Z,15.80
2019-03-01T03:39:33.917Z,15.30
2019-03-01T03:42:02.504Z,15.40
2019-03-01T03:44:31.207Z,16.20
2019-03-01T03:46:59.854Z,15.70
2019-03-01T03:49:28.818Z,14.75
2019-03-01T03:51:57.735Z,15.45
2019-03-01T03:54:25.921Z,14.93
2019-03-01T03:56:54.385Z,14.78
2019-03-01T03:59:22.749Z,15.40
2019-03-01T04:01:51.431Z,14.90
2019-03-01T04:04:22.156Z,14.98
2019-03-01T04:06:50.010Z,14.43
2019-03-01T04:09:18.925Z,14.87
2019-03-01T04:11:49.007Z,14.47
2019-03-01T04:14:17.088Z,13.62
2019-03-01T04:16:45.631Z,14.80
2019-03-01T04:19:14.283Z,14.35
2019-03-01T04:21:42.973Z,14.78
2019-03-01T04:24:11.018Z,14.47
2019-03-01T04:26:39.076Z,14.65
2019-03-01T04:29:07.229Z,15.10
2019-03-01T04:31:35.406Z,14.28
2019-03-01T04:34:05.993Z,14.35
2019-03-01T04:36:34.591Z,14.77
2019-03-01T04:39:02.956Z,14.45
2019-03-01T04:41:31.835Z,14.98
2019-03-01T04:44:00.376Z,14.33
2019-03-01T04:46:28.848Z,14.40
2019-03-01T04:48:58.823Z,13.72
2019-03-01T04:51:27.044Z,14.70
2019-03-01T04:53:55.620Z,14.20
2019-03-01T04:56:24.588Z,13.50
2019-03-01T04:58:53.539Z,13.80
2019-03-01T05:01:21.560Z,14.45
2019-03-01T05:03:49.740Z,14.15
2019-03-01T05:06:18.348Z,14.45
2019-03-01T05:08:47.112Z,14.47
2019-03-01T05:11:15.224Z,15.20
2019-03-01T05:13:43.597Z,14.60
2019-03-01T05:16:11.696Z,15.40
2019-03-01T05:18:40.321Z,15.13
2019-03-01T05:21:08.789Z,15.30
2019-03-01T05:23:37.267Z,15.32
2019-03-01T05:26:06.521Z,15.63
2019-03-01T05:28:36.407Z,15.53
2019-03-01T05:31:04.830Z,14.80
2019-03-01T05:33:33.488Z,15.83
2019-03-01T05:36:02.655Z,16.00
2019-03-01T05:38:31.274Z,16.65
2019-03-01T05:40:59.639Z,16.37
2019-03-01T05:43:29.681Z,16.20
2019-03-01T05:45:57.767Z,16.17
2019-03-01T05:48:26.190Z,15.68
2019-03-01T05:50:54.309Z,15.90
2019-03-01T05:53:22.788Z,16.80
2019-03-01T05:55:51.456Z,15.90
2019-03-01T05:58:45.199Z,16.97
2019-03-01T06:01:24.623Z,16.70
2019-03-01T06:03:57.092Z,16.60
2019-03-01T06:06:31.701Z,16.10
2019-03-01T06:09:37.529Z,16.80
2019-03-01T06:12:27.714Z,16.77
2019-03-01T06:15:18.549Z,16.42
2019-03-01T06:18:06.458Z,16.10
2019-03-01T06:20:45.191Z,16.07
2019-03-01T06:23:19.155Z,16.40
2019-03-01T06:26:15.499Z,16.65
2019-03-01T06:28:46.634Z,16.40
2019-03-01T06:31:36.861Z,16.35
2019-03-01T06:34:26.615Z,17.30
2019-03-01T06:37:15.400Z,16.65
2019-03-01T06:40:21.165Z,16.65
2019-03-01T06:43:01.941Z,16.80
2019-03-01T06:45:41.080Z,16.70
2019-03-01T06:48:12.868Z,16.50
2019-03-01T06:50:49.156Z,17.32
2019-03-01T06:53:17.343Z,16.97
2019-03-01T06:55:46.495Z,17.02
2019-03-01T06:58:22.281Z,16.87
2019-03-01T07:00:53.858Z,16.73
2019-03-01T07:03:22.457Z,16.45
2019-03-01T07:05:51.145Z,16.10
2019-03-01T07:08:20.308Z,16.90
2019-03-01T07:10:48.821Z,13.38
2019-03-01T07:13:17.891Z,13.40
2019-03-01T07:15:46.303Z,12.98
2019-03-01T07:18:16.013Z,12.27
2019-03-01T07:20:44.397Z,12.58
2019-03-01T07:23:13.741Z,12.27
2019-03-01T07:25:42.548Z,11.78
2019-03-01T07:28:11.941Z,11.50
2019-03-01T07:30:40.158Z,10.90
2019-03-01T07:33:08.784Z,12.20
2019-03-01T07:35:36.957Z,11.15
2019-03-01T07:38:05.764Z,10.10
2019-03-01T07:40:34.256Z,8.88
2019-03-01T07:43:02.461Z,8.98
2019-03-01T07:45:30.639Z,8.20
2019-03-01T07:47:59.536Z,7.50
2019-03-01T07:50:29.097Z,7.40
2019-03-01T07:53:00.228Z,6.97
2019-03-01T07:55:28.402Z,7.28
2019-03-01T07:57:59.300Z,6.70
2019-03-01T08:00:27.756Z,7.00
2019-03-01T08:02:55.872Z,6.55
2019-03-01T08:05:23.900Z,6.50
2019-03-01T08:07:56.171Z,6.60
2019-03-01T08:10:23.310Z,6.22
2019-03-01T08:12:52.085Z,6.03
2019-03-01T08:15:20.472Z,6.00
2019-03-01T08:17:49.150Z,7.22
2019-03-01T08:20:17.299Z,6.80
2019-03-01T08:22:49.013Z,5.70
2019-03-01T08:25:22.528Z,5.20
2019-03-01T08:27:47.800Z,5.20
2019-03-01T08:30:16.228Z,5.20
2019-03-01T08:32:45.885Z,4.78
2019-03-01T08:35:14.464Z,4.53
2019-03-01T08:37:43.150Z,4.80
2019-03-01T08:40:14.697Z,7.10
2019-03-01T08:42:42.300Z,5.28
2019-03-01T08:45:11.664Z,5.17
2019-03-01T08:47:42.032Z,4.70
2019-03-01T08:50:11.375Z,6.37
2019-03-01T08:52:40.386Z,4.70
2019-03-01T08:55:10.342Z,5.97
2019-03-01T08:57:44.260Z,4.95
2019-03-01T09:00:11.610Z,5.17
2019-03-01T09:02:40.152Z,5.80
2019-03-01T09:05:09.935Z,5.47
2019-03-01T09:07:40.448Z,5.10
2019-03-01T09:10:09.760Z,21.70
2019-03-01T09:12:38.574Z,10.48
2019-03-01T09:15:08.287Z,9.40
2019-03-01T09:17:36.782Z,6.23
2019-03-01T09:20:05.718Z,5.05
2019-03-01T09:22:33.859Z,4.55
2019-03-01T09:25:02.628Z,4.50
2019-03-01T09:27:31.960Z,4.25
2019-03-01T09:30:03.631Z,4.90
2019-03-01T09:32:33.834Z,4.37
2019-03-01T09:35:18.429Z,4.50
2019-03-01T09:37:47.067Z,4.67
2019-03-01T09:40:15.122Z,4.50
2019-03-01T09:42:43.512Z,4.80
2019-03-01T09:45:13.647Z,4.10
2019-03-01T09:47:41.278Z,3.70
2019-03-01T09:50:09.448Z,3.92
2019-03-01T09:52:37.495Z,3.75
2019-03-01T09:55:05.688Z,3.67
2019-03-01T09:57:33.825Z,3.90
2019-03-01T10:00:03.193Z,3.80
2019-03-01T10:02:31.609Z,3.85
2019-03-01T10:05:00.395Z,3.60
2019-03-01T10:07:29.344Z,3.40
2019-03-01T10:09:58.498Z,3.40
2019-03-01T10:12:27.136Z,3.50
2019-03-01T10:14:55.468Z,4.00
2019-03-01T10:17:23.935Z,3.60
2019-03-01T10:19:52.488Z,4.80
2019-03-01T10:22:20.961Z,4.10
2019-03-01T10:24:51.022Z,4.15
2019-03-01T10:27:18.872Z,4.00
2019-03-01T10:29:47.836Z,4.30
2019-03-01T10:32:15.931Z,3.90
2019-03-01T10:34:44.225Z,4.03
2019-03-01T10:37:12.280Z,4.10
2019-03-01T10:39:40.745Z,4.10
2019-03-01T10:42:08.870Z,3.70
2019-03-01T10:44:37.595Z,3.92
2019-03-01T10:47:06.121Z,4.20
2019-03-01T10:49:34.452Z,4.47
2019-03-01T10:52:03.130Z,4.28
2019-03-01T10:54:31.263Z,4.12
2019-03-01T10:57:00.101Z,3.52
2019-03-01T10:59:28.152Z,3.37
2019-03-01T11:01:56.318Z,3.15
2019-03-01T11:04:24.727Z,3.22
2019-03-01T11:06:53.669Z,3.70
2019-03-01T11:09:22.815Z,3.30
2019-03-01T11:11:53.193Z,3.58
2019-03-01T11:14:21.293Z,3.02
2019-03-01T11:16:50.008Z,3.20
2019-03-01T11:19:18.495Z,3.00
2019-03-01T11:21:47.162Z,3.30
2019-03-01T11:24:15.963Z,3.70
2019-03-01T11:26:44.681Z,3.20
2019-03-01T11:29:13.832Z,3.25
2019-03-01T11:31:41.981Z,3.55
2019-03-01T11:34:10.491Z,3.50
2019-03-01T11:36:39.258Z,3.20
2019-03-01T11:39:07.716Z,3.52
2019-03-01T11:41:35.879Z,3.40
2019-03-01T11:44:04.377Z,3.33
2019-03-01T11:46:33.026Z,3.50
2019-03-01T11:49:01.811Z,3.60
2019-03-01T11:51:30.269Z,3.30
2019-03-01T11:53:58.772Z,3.25
2019-03-01T11:56:27.057Z,2.70
2019-03-01T11:58:55.709Z,3.10
2019-03-01T12:01:24.526Z,3.00
2019-03-01T12:03:53.178Z,3.10
2019-03-01T12:06:21.679Z,3.00
2019-03-01T12:08:50.072Z,2.90
2019-03-01T12:11:18.309Z,2.90
2019-03-01T12:13:46.554Z,2.50
2019-03-01T12:16:17.346Z,3.33
2019-03-01T12:18:45.576Z,2.80
2019-03-01T12:21:13.653Z,2.90
2019-03-01T12:23:41.928Z,3.00
2019-03-01T12:26:10.005Z,3.40
2019-03-01T12:28:38.480Z,2.90
2019-03-01T12:31:06.921Z,2.58
2019-03-01T12:33:35.372Z,2.83
2019-03-01T12:36:03.412Z,2.37
2019-03-01T12:38:31.605Z,2.70
2019-03-01T12:41:00.033Z,3.00
2019-03-01T12:43:28.161Z,2.83
2019-03-01T12:45:56.994Z,3.13
2019-03-01T12:48:25.039Z,2.70
2019-03-01T12:50:54.694Z,3.10
2019-03-01T12:53:24.792Z,3.08
2019-03-01T12:55:53.280Z,2.98
2019-03-01T12:58:21.488Z,2.80
2019-03-01T13:00:49.554Z,2.90
2019-03-01T13:03:18.528Z,2.55
2019-03-01T13:05:47.013Z,3.30
2019-03-01T13:08:15.802Z,2.92
2019-03-01T13:10:46.153Z,2.95
2019-03-01T13:13:14.275Z,3.10
2019-03-01T13:15:45.446Z,3.10
2019-03-01T13:18:15.894Z,2.80
2019-03-01T13:20:43.316Z,2.80
2019-03-01T13:23:11.376Z,2.90
2019-03-01T13:25:39.767Z,3.10
2019-03-01T13:28:07.799Z,3.20
2019-03-01T13:30:36.683Z,3.27
2019-03-01T13:33:05.209Z,2.60
2019-03-01T13:35:33.228Z,3.00
2019-03-01T13:38:03.760Z,2.70
2019-03-01T13:40:31.573Z,2.72
2019-03-01T13:43:00.269Z,2.60
2019-03-01T13:45:28.943Z,2.75
2019-03-01T13:47:57.435Z,2.62
2019-03-01T13:50:26.322Z,3.00
2019-03-01T13:52:54.362Z,3.20
2019-03-01T13:55:23.728Z,3.25
2019-03-01T13:57:52.048Z,2.90
2019-03-01T14:00:20.222Z,2.77
2019-03-01T14:02:49.040Z,2.80
2019-03-01T14:05:17.500Z,2.70
2019-03-01T14:07:46.696Z,2.77
2019-03-01T14:10:15.567Z,2.70
2019-03-01T14:12:44.006Z,2.60
2019-03-01T14:15:13.552Z,2.67
2019-03-01T14:17:42.001Z,2.72
2019-03-01T14:20:11.443Z,3.02
2019-03-01T14:22:39.600Z,2.60
2019-03-01T14:25:08.260Z,3.07
2019-03-01T14:27:37.457Z,3.00
2019-03-01T14:30:06.315Z,3.10
2019-03-01T14:32:34.720Z,3.30
2019-03-01T14:35:02.872Z,2.80
2019-03-01T14:37:31.163Z,3.50
2019-03-01T14:39:59.747Z,2.70
2019-03-01T14:42:27.846Z,2.80
2019-03-01T14:44:56.799Z,2.90
2019-03-01T14:47:25.147Z,2.65
2019-03-01T14:49:54.000Z,3.10
2019-03-01T14:52:23.024Z,2.70
2019-03-01T14:54:51.353Z,2.80
2019-03-01T14:57:22.129Z,3.10
2019-03-01T14:59:53.541Z,2.80
2019-03-01T15:02:24.168Z,2.47
2019-03-01T15:04:54.261Z,2.60
2019-03-01T15:07:22.226Z,2.80
2019-03-01T15:09:53.319Z,3.27
2019-03-01T15:12:21.260Z,3.00
2019-03-01T15:14:50.906Z,3.00
2019-03-01T15:17:21.882Z,2.60
2019-03-01T15:19:49.212Z,2.95
2019-03-01T15:22:17.564Z,2.80
2019-03-01T15:24:45.684Z,3.60
2019-03-01T15:27:15.084Z,3.10
2019-03-01T15:29:43.113Z,3.30
2019-03-01T15:32:12.543Z,3.27
2019-03-01T15:34:41.049Z,3.00
2019-03-01T15:37:09.420Z,3.62
2019-03-01T15:39:37.441Z,2.90
2019-03-01T15:42:05.819Z,3.20
2019-03-01T15:44:34.757Z,3.10
2019-03-01T15:47:03.192Z,3.30
2019-03-01T15:49:31.389Z,3.58
2019-03-01T15:51:59.552Z,3.65
2019-03-01T15:54:27.645Z,3.90
2019-03-01T15:56:56.423Z,4.40
2019-03-01T15:59:24.507Z,4.20
2019-03-01T16:01:52.589Z,4.30
2019-03-01T16:04:21.022Z,3.60
2019-03-01T16:06:49.067Z,3.95
2019-03-01T16:09:17.512Z,4.05
2019-03-01T16:11:45.544Z,4.00
2019-03-01T16:14:13.684Z,4.37
2019-03-01T16:16:42.561Z,4.10
2019-03-01T16:19:11.102Z,4.43
2019-03-01T16:21:43.135Z,4.53
2019-03-01T16:24:10.924Z,4.97
2019-03-01T16:26:39.513Z,4.30
2019-03-01T16:29:08.110Z,4.20
2019-03-01T16:31:36.343Z,4.20
2019-03-01T16:34:05.388Z,5.22
2019-03-01T16:36:46.772Z,5.33
2019-03-01T16:39:16.470Z,5.37
2019-03-01T16:41:44.824Z,5.20
2019-03-01T16:44:13.387Z,5.23
2019-03-01T16:46:42.316Z,5.33
2019-03-01T16:49:12.175Z,5.15
2019-03-01T16:51:40.640Z,5.47
2019-03-01T16:54:08.725Z,6.35
2019-03-01T16:56:38.519Z,6.40
2019-03-01T16:59:07.265Z,5.43
2019-03-01T17:01:35.344Z,6.00
2019-03-01T17:04:03.400Z,5.37
2019-03-01T17:06:31.468Z,6.50
2019-03-01T17:08:59.534Z,14.18
2019-03-01T17:11:27.575Z,7.62
2019-03-01T17:13:56.135Z,18.25
2019-03-01T17:16:24.614Z,18.75
2019-03-01T17:18:54.421Z,12.00
2019-03-01T17:21:23.337Z,12.07
2019-03-01T17:23:51.653Z,11.60
2019-03-01T17:26:19.683Z,18.05
2019-03-01T17:28:49.857Z,18.00
2019-03-01T17:31:18.008Z,7.85
2019-03-01T17:33:48.760Z,6.10
2019-03-01T17:36:16.894Z,5.45
2019-03-01T17:38:46.187Z,6.17
2019-03-01T17:41:14.570Z,5.08
2019-03-01T17:43:43.195Z,5.47
2019-03-01T17:46:11.350Z,5.90
2019-03-01T17:48:39.787Z,5.30
2019-03-01T17:51:07.824Z,5.45
2019-03-01T17:53:35.868Z,5.42
2019-03-01T17:57:50.075Z,5.00
2019-03-01T18:00:21.632Z,4.75
2019-03-01T18:02:52.083Z,4.90
2019-03-01T18:05:20.833Z,5.20
2019-03-01T18:07:49.237Z,5.28
2019-03-01T18:10:18.381Z,4.87
2019-03-01T18:12:46.968Z,5.03
2019-03-01T18:15:15.514Z,5.50
2019-03-01T18:17:43.673Z,4.35
2019-03-01T18:20:12.292Z,4.92
2019-03-01T18:22:40.749Z,5.10
2019-03-01T18:25:11.831Z,5.40
2019-03-01T18:27:40.680Z,5.00
2019-03-01T18:30:10.988Z,4.90
2019-03-01T18:32:41.747Z,4.50
2019-03-01T18:35:12.263Z,4.67
2019-03-01T18:37:41.201Z,4.43
2019-03-01T18:40:09.844Z,4.10
2019-03-01T18:42:38.840Z,4.30
2019-03-01T18:45:07.994Z,4.30
2019-03-01T18:47:36.640Z,4.40
2019-03-01T18:50:05.788Z,5.20
2019-03-01T18:52:34.201Z,4.80
2019-03-01T18:55:03.010Z,4.83
2019-03-01T18:57:31.391Z,4.50
2019-03-01T19:00:00.956Z,4.58
2019-03-01T19:02:29.600Z,4.60
2019-03-01T19:05:00.680Z,4.40
2019-03-01T19:07:28.687Z,4.33
2019-03-01T19:09:56.889Z,3.98
2019-03-01T19:12:25.389Z,4.65
2019-03-01T19:14:53.753Z,4.72
2019-03-01T19:17:22.233Z,5.05
2019-03-01T19:19:52.246Z,5.12
2019-03-01T19:22:20.335Z,4.93
2019-03-01T19:24:50.189Z,5.30
2019-03-01T19:27:18.789Z,4.33
2019-03-01T19:29:47.349Z,4.10
2019-03-01T19:32:15.655Z,4.20
2019-03-01T19:34:44.519Z,4.05
2019-03-01T19:37:13.320Z,4.23
2019-03-01T19:39:43.241Z,4.70
2019-03-01T19:42:11.344Z,4.17
2019-03-01T19:44:40.878Z,4.10
2019-03-01T19:47:11.027Z,4.33
2019-03-01T19:49:40.017Z,4.50
2019-03-01T19:52:09.447Z,4.70
2019-03-01T19:54:38.328Z,4.42
2019-03-01T19:57:06.739Z,4.30
2019-03-01T19:59:34.941Z,4.40
2019-03-01T20:02:03.022Z,4.20
2019-03-01T20:04:33.345Z,4.50
2019-03-01T20:07:01.833Z,4.80
2019-03-01T20:09:30.423Z,4.90
2019-03-01T20:11:59.285Z,4.20
2019-03-01T20:14:30.369Z,4.12
2019-03-01T20:16:59.015Z,4.20
2019-03-01T20:19:27.967Z,3.70
2019-03-01T20:21:56.119Z,3.80
2019-03-01T20:24:24.248Z,4.00
2019-03-01T20:26:53.213Z,4.00
2019-03-01T20:29:23.573Z,4.10
2019-03-01T20:31:51.754Z,4.00
2019-03-01T20:34:19.977Z,3.80
2019-03-01T20:36:49.648Z,4.30
2019-03-01T20:39:18.170Z,3.87
2019-03-01T20:41:46.823Z,3.90
2019-03-01T20:44:18.560Z,4.05
2019-03-01T20:46:45.069Z,3.90
2019-03-01T20:49:13.481Z,3.92
2019-03-01T20:51:41.980Z,5.40
2019-03-01T20:54:10.388Z,3.75
2019-03-01T20:56:39.113Z,3.87
2019-03-01T20:59:07.300Z,4.10
2019-03-01T21:01:37.244Z,3.62
2019-03-01T21:04:05.723Z,3.72
2019-03-01T21:06:34.122Z,3.90
2019-03-01T21:09:04.107Z,3.70
2019-03-01T21:11:32.828Z,3.90
2019-03-01T21:14:00.912Z,4.08
2019-03-01T21:16:29.125Z,4.40
2019-03-01T21:18:57.400Z,4.30
2019-03-01T21:21:28.928Z,4.40
2019-03-01T21:23:56.111Z,4.00
2019-03-01T21:26:24.264Z,4.15
2019-03-01T21:28:53.129Z,4.45
2019-03-01T21:31:22.754Z,4.87
2019-03-01T21:33:50.941Z,4.70
2019-03-01T21:36:23.027Z,5.27
2019-03-01T21:38:50.302Z,5.45
2019-03-01T21:41:18.524Z,7.20
2019-03-01T21:43:46.616Z,7.22
2019-03-01T21:46:15.163Z,5.70
2019-03-01T21:48:43.859Z,6.30
2019-03-01T21:51:14.811Z,5.90
2019-03-01T21:53:42.441Z,6.47
2019-03-01T21:56:10.587Z,6.00
2019-03-01T21:58:41.861Z,6.60
2019-03-01T22:01:09.329Z,6.70
2019-03-01T22:03:37.767Z,6.65
2019-03-01T22:06:06.228Z,6.62
2019-03-01T22:08:34.809Z,6.60
2019-03-01T22:11:02.995Z,6.50
2019-03-01T22:13:32.504Z,7.28
2019-03-01T22:16:02.740Z,6.70
2019-03-01T22:18:31.483Z,6.42
2019-03-01T22:20:59.785Z,6.78
2019-03-01T22:23:27.783Z,6.90
2019-03-01T22:25:56.197Z,6.65
2019-03-01T22:28:24.760Z,6.80
2019-03-01T22:30:52.901Z,7.12
2019-03-01T22:33:22.117Z,6.90
2019-03-01T22:35:50.517Z,6.95
2019-03-01T22:38:18.571Z,7.00
2019-03-01T22:40:47.176Z,6.80
2019-03-01T22:43:15.756Z,6.20
2019-03-01T22:45:45.504Z,6.20
2019-03-01T22:48:14.287Z,6.30
2019-03-01T22:50:42.787Z,6.20
2019-03-01T22:53:12.708Z,6.40
2019-03-01T22:55:42.875Z,7.00
2019-03-01T22:58:11.106Z,6.28
2019-03-01T23:01:22.718Z,6.40
2019-03-01T23:03:55.954Z,6.10
2019-03-01T23:06:24.952Z,6.30
2019-03-01T23:08:53.701Z,6.47
2019-03-01T23:11:21.781Z,6.20
2019-03-01T23:14:07.683Z,6.17
2019-03-01T23:16:36.213Z,6.40
2019-03-01T23:19:04.245Z,6.28
2019-03-01T23:21:35.849Z,6.35
2019-03-01T23:24:02.825Z,6.05
2019-03-01T23:26:31.856Z,6.20
2019-03-01T23:29:01.196Z,6.33
2019-03-01T23:31:30.039Z,6.10
2019-03-01T23:33:58.515Z,6.20
2019-03-01T23:36:28.506Z,5.75
2019-03-01T23:38:57.129Z,6.30
2019-03-01T23:41:25.172Z,6.00
2019-03-01T23:43:54.280Z,6.60
2019-03-01T23:46:25.610Z,6.37
2019-03-01T23:48:52.121Z,6.37
2019-03-01T23:51:20.304Z,6.53
2019-03-01T23:53:49.383Z,6.10
2019-03-01T23:56:17.925Z,6.13
2019-03-01T23:58:47.969Z,6.47
